• Join FlightAware (Why Join?)
  • Login
  • US Flag 
02:33PM EDT


 

Airport Tracker/Info


-or-


 

Live Flight TrackerFlight Track Log ✈ SKW6448 ✈ 19-Jun-2013 ✈ KLAX - KAUS

Flight Track Log - Related Links

Times and Time Zones

All times are in EDT time to prevent confusion due to time zone crossing. See the SKW6448 flight status page for this flight to view local times or setup timezone preferences in your user account.

Time Position Orientation Groundspeed Altitude Reporting Facility
EDT Latitude Longitude Course Direction KTS MPH feet Rate Location/Type
11:07PM 33.8855 -117.8072 96° East  Level Estimated
11:08PM 33.8708 -117.6572 97° East  Level Estimated
11:09PM 33.8559 -117.5071 97° East  Level Estimated
11:10PM 33.8408 -117.3571 97° East  Level Estimated
11:11PM 33.8255 -117.2072 97° East  Level Estimated
11:12PM 33.8101 -117.0573 97° East  Level Estimated
11:13PM 33.7944 -116.9075 97° East  Level Estimated
11:14PM 33.7786 -116.7578 97° East  Level Estimated
11:15PM 33.7627 -116.6080 97° East  Level Estimated
11:16PM 33.7465 -116.4584 97° East  Level Estimated
11:17PM 33.7302 -116.3088 97° East  Level Estimated
11:18PM 33.7136 -116.1593 98° East  Level Estimated
11:19PM 33.6969 -116.0098 98° East  Level Estimated
11:20PM 33.6801 -115.8604 98° East  Level Estimated
11:21PM 33.6630 -115.7110 98° East  Level Estimated
11:22PM 33.6458 -115.5617 98° East  Level Estimated
11:23PM 33.6283 -115.4125 98° East  Level Estimated
11:24PM 33.6107 -115.2633 98° East  Level Estimated
11:25PM 33.5930 -115.1142 98° East  Level Estimated
11:26PM 33.5750 -114.9651 98° East  Level Estimated
11:27PM 33.5569 -114.8161 98° East  Level Estimated
11:28PM 33.5386 -114.6672 98° East  Level Estimated
11:29PM 33.5201 -114.5183 98° East  Level Estimated
11:30PM 33.5014 -114.3695 99° East  Level Estimated
11:31PM 33.4825 -114.2208 99° East  Level Estimated
11:32PM 33.4635 -114.0721 99° East  Level Estimated
11:33PM 33.4443 -113.9235 99° East  Level Estimated
11:34PM 33.4249 -113.7749 99° East  Level Estimated
11:35PM 33.4053 -113.6264 99° East  Level Estimated
11:36PM 33.3856 -113.4780 99° East  Level Estimated
11:37PM 33.3657 -113.3297 99° East  Level Estimated
11:38PM 33.3456 -113.1814 99° East  Level Estimated
11:39PM 33.3253 -113.0332 99° East  Level Estimated
11:40PM 33.3049 -112.8851 99° East  Level Estimated
11:41PM 33.2843 -112.7370 99° East  Level Estimated
11:42PM 33.2635 -112.5890 99° East  Level Estimated
11:43PM 33.2425 -112.4411 100° East  Level Estimated
11:44PM 33.2214 -112.2932 100° East  Level Estimated
11:45PM 33.2001 -112.1454 100° East  Level Estimated
11:46PM 33.1786 -111.9977 100° East  Level Estimated
11:47PM 33.1569 -111.8501 100° East  Level Estimated
11:48PM 33.1351 -111.7025 100° East  Level Estimated
11:49PM 33.1130 -111.5551 100° East  Level Estimated
11:50PM 33.0909 -111.4076 100° East  Level Estimated
11:51PM 33.0685 -111.2603 100° East  Level Estimated
11:52PM 33.0460 -111.1130 100° East  Level Estimated
11:53PM 33.0232 -110.9658 100° East  Level Estimated
11:54PM 33.0004 -110.8187 100° East  Level Estimated
11:55PM 32.9773 -110.6717 101° East  Level Estimated
11:56PM 32.9541 -110.5247 101° East  Level Estimated
11:57PM 32.9307 -110.3778 101° East  Level Estimated
11:58PM 32.9071 -110.2310 101° East  Level Estimated
11:59PM 32.8834 -110.0843 101° East  Level Estimated
12:00AM 32.8595 -109.9377 101° East  Level Estimated
12:01AM 32.8354 -109.7911 101° East  Level Estimated
12:02AM 32.8111 -109.6446 101° East  Level Estimated
12:03AM 32.7867 -109.4982 101° East  Level Estimated
12:04AM 32.7621 -109.3519 101° East  Level Estimated
12:05AM 32.7374 -109.2056 101° East  Level Estimated
12:06AM 32.7124 -109.0594 101° East  Level Estimated
12:07AM 32.6873 -108.9134 102° East  Level Estimated
12:08AM 32.6621 -108.7673 102° East  Level Estimated
12:09AM 32.6366 -108.6214 102° East  Level Estimated
12:10AM 32.6110 -108.4756 102° East  Level Estimated
12:11AM 32.5852 -108.3298 102° East  Level Estimated
12:12AM 32.5593 -108.1842 102° East  Level Estimated
12:13AM 32.5332 -108.0386 102° East  Level Estimated
12:14AM 32.5069 -107.8931 102° East  Level Estimated
12:15AM 32.4804 -107.7477 102° East  Level Estimated
12:16AM 32.4538 -107.6023 102° East  Level Estimated
12:17AM 32.4270 -107.4571 102° East  Level Estimated
12:18AM 32.4001 -107.3120 102° East  Level Estimated
12:19AM 32.3730 -107.1669 102° East  Level Estimated
12:20AM 32.3457 -107.0219 103° East  Level Estimated
12:21AM 32.3182 -106.8770 103° East  Level Estimated
12:22AM 32.2906 -106.7322 103° East  Level Estimated
12:23AM 32.2628 -106.5875 103° East  Level Estimated
12:24AM 32.2349 -106.4429 103° East  Level Estimated
12:25AM 32.2068 -106.2983 103° East  Level Estimated
12:26AM 32.1785 -106.1539 103° East  Level Estimated
12:27AM 32.1501 -106.0095 103° East  Level Estimated
12:28AM 32.1215 -105.8652 103° East  Level Estimated
12:29AM 32.0927 -105.7211 103° East  Level Estimated
12:30AM 32.0638 -105.5770 103° East  Level Estimated
12:31AM 32.0347 -105.4330 103° East  Level Estimated
12:32AM 32.0055 -105.2891 103° East  Level Estimated
12:33AM 31.9760 -105.1453 104° East  Level Estimated
12:34AM 31.9464 -105.0015 104° East  Level Estimated
12:35AM 31.9167 -104.8579 104° East  Level Estimated
12:36AM 31.8868 -104.7144 104° East  Level Estimated
12:37AM 31.8568 -104.5710 104° East  Level Estimated
12:38AM 31.8265 -104.4276 104° East  Level Estimated
12:39AM 31.7962 -104.2843 104° East  Level Estimated
12:40AM 31.7656 -104.1412 104° East  Level Estimated
12:41AM 31.7349 -103.9981 104° East  Level Estimated
12:42AM 31.7041 -103.8552 104° East  Level Estimated
12:43AM 31.6730 -103.7123 104° East  Level Estimated
12:44AM 31.6418 -103.5695 104° East  Level Estimated
12:45AM 31.6105 -103.4268 104° East  Level Estimated
12:46AM 31.5790 -103.2842 105° East  Level Estimated
12:47AM 31.5473 -103.1418 105° East  Level Estimated
12:48AM 31.5155 -102.9994 105° East  Level Estimated
12:49AM 31.4836 -102.8571 105° East  Level Estimated
12:50AM 31.4514 -102.7149 105° East  Level Estimated
12:51AM 31.4191 -102.5728 105° East  Level Estimated
12:52AM 31.3867 -102.4308 105° East  Level Estimated
12:53AM 31.3541 -102.2889 105° East  Level Estimated
12:54AM 31.3213 -102.1471 105° East  Level Estimated
12:55AM 31.2884 -102.0054 105° East  Level Estimated
12:56AM 31.2554 -101.8638 105° East  Level Estimated
12:57AM 31.2221 -101.7223 105° East  Level Estimated
12:58AM 31.1888 -101.5808 105° East  Level Estimated
12:59AM 31.1552 -101.4395 105° East  Level Estimated
01:00AM 31.1215 -101.2983 106° East  Level Estimated
01:01AM 31.0877 -101.1572 106° East  Level Estimated
01:02AM 31.0537 -101.0162 106° East  Level Estimated
01:03AM 31.0196 -100.8753 106° East  Level Estimated
01:04AM 30.9853 -100.7345 106° East  Level Estimated
01:05AM 30.9508 -100.5938 106° East  Level Estimated
01:06AM 30.9162 -100.4532 106° East  Level Estimated
01:07AM 30.8815 -100.3127 106° East  Level Estimated
01:08AM 30.8465 -100.1723 106° East  Level Estimated
01:09AM 30.8115 -100.0320 106° East  Level Estimated
01:10AM 30.7763 -99.8918 106° East  Level Estimated
01:11AM 30.7409 -99.7517 106° East  Level Estimated
01:12AM 30.7054 -99.6117 106° East  Level Estimated
01:13AM 30.6697 -99.4719 106° East  Level Estimated
01:14AM 30.6339 -99.3321 107° East  Level Estimated
01:15AM 30.5980 -99.1924 107° East  Level Estimated
01:16AM 30.5619 -99.0528 107° East  Level Estimated
01:17AM 30.5256 -98.9134 107° East  Level Estimated
01:18AM 30.4892 -98.7740 107° East  Level Estimated
01:19AM 30.4526 -98.6348 107° East  Level Estimated
01:20AM 30.4159 -98.4956 107° East  Level Estimated
01:21AM 30.3791 -98.3566 107° East  Level Estimated
01:22AM 30.3421 -98.2176 107° East  Level Estimated
01:23AM 30.3049 -98.0788 107° East  Level Estimated
01:24AM 30.2677 -97.9400 107° East  Level Estimated
01:25AM 30.2302 -97.8014 107° East  Level Estimated
01:26AM 30.1945 -97.6699 107° East  Level Estimated
01:27AM 30.1945 -97.6699 157° South  Level Estimated
01:28AM 30.1945 -97.6699 157° South  Level Estimated
01:29AM 30.1945 -97.6699 157° South  Level Estimated
01:30AM 30.1945 -97.6699 157° South  Level Estimated
01:31AM 30.1945 -97.6699 157° South  Level Estimated
01:32AM 30.1945 -97.6699 157° South  Level Estimated
01:33AM 30.1945 -97.6699 157° South  Level Estimated
01:34AM 30.1945 -97.6699 157° South  Level Estimated
01:35AM 30.1945 -97.6699 157° South  Level Estimated
01:36AM 30.1945 -97.6699 157° South  Level Estimated
01:37AM 30.1945 -97.6699 157° South  Level Estimated
01:38AM 30.1945 -97.6699 157° South  Level Estimated
01:39AM 30.1945 -97.6699 157° South  Level Estimated
01:40AM 30.1945 -97.6699 157° South  Level Estimated
01:41AM 30.1945 -97.6699 157° South  Level Estimated
01:42AM 30.1945 -97.6699 157° South  Level Estimated